sensor_id;sensor_type;location;lat;lon;timestamp;temperature;humidity
52415;DHT22;38340;52.964;6.086;2023-12-20T00:01:03;6.00;99.90
52415;DHT22;38340;52.964;6.086;2023-12-20T00:03:29;6.00;99.90
52415;DHT22;38340;52.964;6.086;2023-12-20T00:05:55;6.00;99.90
52415;DHT22;38340;52.964;6.086;2023-12-20T00:08:21;5.90;99.90
52415;DHT22;38340;52.964;6.086;2023-12-20T00:10:47;5.80;99.90
52415;DHT22;38340;52.964;6.086;2023-12-20T00:13:12;5.80;99.90
52415;DHT22;38340;52.964;6.086;2023-12-20T00:15:38;5.80;99.90
52415;DHT22;38340;52.964;6.086;2023-12-20T00:18:04;5.80;99.90
52415;DHT22;38340;52.964;6.086;2023-12-20T00:20:30;5.80;99.90
52415;DHT22;38340;52.964;6.086;2023-12-20T00:22:57;5.80;99.90
52415;DHT22;38340;52.964;6.086;2023-12-20T00:25:26;5.80;99.90
52415;DHT22;38340;52.964;6.086;2023-12-20T00:27:52;5.80;99.90
52415;DHT22;38340;52.964;6.086;2023-12-20T00:30:18;5.70;99.90
52415;DHT22;38340;52.964;6.086;2023-12-20T00:32:44;5.80;99.90
52415;DHT22;38340;52.964;6.086;2023-12-20T00:35:15;5.80;99.90
52415;DHT22;38340;52.964;6.086;2023-12-20T00:37:41;5.80;99.90
52415;DHT22;38340;52.964;6.086;2023-12-20T00:40:07;5.80;99.90
52415;DHT22;38340;52.964;6.086;2023-12-20T00:42:33;5.70;99.90
52415;DHT22;38340;52.964;6.086;2023-12-20T00:44:59;5.70;99.90
52415;DHT22;38340;52.964;6.086;2023-12-20T00:47:25;5.80;99.90
52415;DHT22;38340;52.964;6.086;2023-12-20T00:49:51;5.80;99.90
52415;DHT22;38340;52.964;6.086;2023-12-20T00:52:17;5.80;99.90
52415;DHT22;38340;52.964;6.086;2023-12-20T00:54:43;5.80;99.90
52415;DHT22;38340;52.964;6.086;2023-12-20T00:57:09;5.80;99.90
52415;DHT22;38340;52.964;6.086;2023-12-20T00:59:35;5.80;99.90
52415;DHT22;38340;52.964;6.086;2023-12-20T01:02:00;5.80;99.90
52415;DHT22;38340;52.964;6.086;2023-12-20T01:04:26;5.80;99.90
52415;DHT22;38340;52.964;6.086;2023-12-20T01:06:52;5.80;99.90
52415;DHT22;38340;52.964;6.086;2023-12-20T01:09:18;5.80;99.90
52415;DHT22;38340;52.964;6.086;2023-12-20T01:11:44;5.90;99.90
52415;DHT22;38340;52.964;6.086;2023-12-20T01:14:12;5.90;99.90
52415;DHT22;38340;52.964;6.086;2023-12-20T01:16:37;5.90;99.90
52415;DHT22;38340;52.964;6.086;2023-12-20T01:19:03;5.90;99.90
52415;DHT22;38340;52.964;6.086;2023-12-20T01:21:29;5.80;99.90
52415;DHT22;38340;52.964;6.086;2023-12-20T01:23:54;5.70;99.90
52415;DHT22;38340;52.964;6.086;2023-12-20T01:26:20;5.70;99.90
52415;DHT22;38340;52.964;6.086;2023-12-20T01:28:46;5.70;99.90
52415;DHT22;38340;52.964;6.086;2023-12-20T01:31:11;5.70;99.90
52415;DHT22;38340;52.964;6.086;2023-12-20T01:33:37;5.70;99.90
52415;DHT22;38340;52.964;6.086;2023-12-20T01:36:03;5.80;99.90
52415;DHT22;38340;52.964;6.086;2023-12-20T01:38:29;5.90;99.90
52415;DHT22;38340;52.964;6.086;2023-12-20T01:40:55;5.90;99.90
52415;DHT22;38340;52.964;6.086;2023-12-20T01:43:20;5.90;99.90
52415;DHT22;38340;52.964;6.086;2023-12-20T01:45:47;5.90;99.90
52415;DHT22;38340;52.964;6.086;2023-12-20T01:48:14;5.90;99.90
52415;DHT22;38340;52.964;6.086;2023-12-20T01:50:42;6.00;99.90
52415;DHT22;38340;52.964;6.086;2023-12-20T01:53:10;6.00;99.90
52415;DHT22;38340;52.964;6.086;2023-12-20T01:55:39;6.00;99.90
52415;DHT22;38340;52.964;6.086;2023-12-20T01:58:07;6.00;99.90
52415;DHT22;38340;52.964;6.086;2023-12-20T02:00:34;6.00;99.90
52415;DHT22;38340;52.964;6.086;2023-12-20T02:03:04;6.10;99.90
52415;DHT22;38340;52.964;6.086;2023-12-20T02:05:31;6.10;99.90
52415;DHT22;38340;52.964;6.086;2023-12-20T02:07:57;6.10;99.90
52415;DHT22;38340;52.964;6.086;2023-12-20T02:10:23;6.10;99.90
52415;DHT22;38340;52.964;6.086;2023-12-20T02:12:49;6.20;99.90
52415;DHT22;38340;52.964;6.086;2023-12-20T02:15:15;6.20;99.90
52415;DHT22;38340;52.964;6.086;2023-12-20T02:17:41;6.20;99.90
52415;DHT22;38340;52.964;6.086;2023-12-20T02:20:07;6.20;99.90
52415;DHT22;38340;52.964;6.086;2023-12-20T02:22:33;6.30;99.90
52415;DHT22;38340;52.964;6.086;2023-12-20T02:24:58;6.30;99.90
52415;DHT22;38340;52.964;6.086;2023-12-20T02:27:24;6.30;99.90
52415;DHT22;38340;52.964;6.086;2023-12-20T02:29:51;6.40;99.90
52415;DHT22;38340;52.964;6.086;2023-12-20T02:32:17;6.30;99.90
52415;DHT22;38340;52.964;6.086;2023-12-20T02:34:44;6.40;99.90
52415;DHT22;38340;52.964;6.086;2023-12-20T02:37:09;6.40;99.90
52415;DHT22;38340;52.964;6.086;2023-12-20T02:39:35;6.40;99.90
52415;DHT22;38340;52.964;6.086;2023-12-20T02:42:01;6.40;99.90
52415;DHT22;38340;52.964;6.086;2023-12-20T02:44:26;6.40;99.90
52415;DHT22;38340;52.964;6.086;2023-12-20T02:46:52;6.50;99.90
52415;DHT22;38340;52.964;6.086;2023-12-20T02:49:18;6.60;99.90
52415;DHT22;38340;52.964;6.086;2023-12-20T02:51:43;6.60;99.90
52415;DHT22;38340;52.964;6.086;2023-12-20T02:54:09;6.50;99.90
52415;DHT22;38340;52.964;6.086;2023-12-20T02:56:35;6.50;99.90
52415;DHT22;38340;52.964;6.086;2023-12-20T02:59:01;6.50;99.90
52415;DHT22;38340;52.964;6.086;2023-12-20T03:01:27;6.40;99.90
52415;DHT22;38340;52.964;6.086;2023-12-20T03:03:53;6.40;99.90
52415;DHT22;38340;52.964;6.086;2023-12-20T03:06:19;6.40;99.90
52415;DHT22;38340;52.964;6.086;2023-12-20T03:08:45;6.30;99.90
52415;DHT22;38340;52.964;6.086;2023-12-20T03:11:11;6.30;99.90
52415;DHT22;38340;52.964;6.086;2023-12-20T03:13:37;6.30;99.90
52415;DHT22;38340;52.964;6.086;2023-12-20T03:16:12;6.30;99.90
52415;DHT22;38340;52.964;6.086;2023-12-20T03:18:39;6.30;99.90
52415;DHT22;38340;52.964;6.086;2023-12-20T03:21:05;6.40;99.90
52415;DHT22;38340;52.964;6.086;2023-12-20T03:23:31;6.40;99.90
52415;DHT22;38340;52.964;6.086;2023-12-20T03:25:58;6.50;99.90
52415;DHT22;38340;52.964;6.086;2023-12-20T03:28:24;6.50;99.90
52415;DHT22;38340;52.964;6.086;2023-12-20T03:30:50;6.60;99.90
52415;DHT22;38340;52.964;6.086;2023-12-20T03:33:15;6.60;99.90
52415;DHT22;38340;52.964;6.086;2023-12-20T03:35:41;6.60;99.90
52415;DHT22;38340;52.964;6.086;2023-12-20T03:38:07;6.70;99.90
52415;DHT22;38340;52.964;6.086;2023-12-20T03:40:33;6.60;99.90
52415;DHT22;38340;52.964;6.086;2023-12-20T03:42:59;6.50;99.90
52415;DHT22;38340;52.964;6.086;2023-12-20T03:45:25;6.50;99.90
52415;DHT22;38340;52.964;6.086;2023-12-20T03:47:50;6.50;99.90
52415;DHT22;38340;52.964;6.086;2023-12-20T03:50:22;6.50;99.90
52415;DHT22;38340;52.964;6.086;2023-12-20T03:52:47;6.60;99.90
52415;DHT22;38340;52.964;6.086;2023-12-20T03:55:13;6.60;99.90
52415;DHT22;38340;52.964;6.086;2023-12-20T03:57:39;6.60;99.90
52415;DHT22;38340;52.964;6.086;2023-12-20T04:00:06;6.70;99.90
52415;DHT22;38340;52.964;6.086;2023-12-20T04:02:39;6.60;99.90
52415;DHT22;38340;52.964;6.086;2023-12-20T04:05:05;6.60;99.90
52415;DHT22;38340;52.964;6.086;2023-12-20T04:07:31;6.70;99.90
52415;DHT22;38340;52.964;6.086;2023-12-20T04:09:57;6.60;99.90
52415;DHT22;38340;52.964;6.086;2023-12-20T04:12:23;6.70;99.90
52415;DHT22;38340;52.964;6.086;2023-12-20T04:14:48;6.70;99.90
52415;DHT22;38340;52.964;6.086;2023-12-20T04:17:15;6.70;99.90
52415;DHT22;38340;52.964;6.086;2023-12-20T04:19:42;6.70;99.90
52415;DHT22;38340;52.964;6.086;2023-12-20T04:22:07;6.80;99.90
52415;DHT22;38340;52.964;6.086;2023-12-20T04:24:33;6.80;99.90
52415;DHT22;38340;52.964;6.086;2023-12-20T04:26:58;6.70;99.90
52415;DHT22;38340;52.964;6.086;2023-12-20T04:29:24;6.70;99.90
52415;DHT22;38340;52.964;6.086;2023-12-20T04:31:50;6.70;99.90
52415;DHT22;38340;52.964;6.086;2023-12-20T04:34:18;6.80;99.90
52415;DHT22;38340;52.964;6.086;2023-12-20T04:36:44;6.80;99.90
52415;DHT22;38340;52.964;6.086;2023-12-20T04:39:11;6.80;99.90
52415;DHT22;38340;52.964;6.086;2023-12-20T04:41:36;6.90;99.90
52415;DHT22;38340;52.964;6.086;2023-12-20T04:44:02;6.90;99.90
52415;DHT22;38340;52.964;6.086;2023-12-20T04:46:28;7.00;99.90
52415;DHT22;38340;52.964;6.086;2023-12-20T04:48:54;7.00;99.90
52415;DHT22;38340;52.964;6.086;2023-12-20T04:51:19;7.00;99.90
52415;DHT22;38340;52.964;6.086;2023-12-20T04:53:45;7.00;99.90
52415;DHT22;38340;52.964;6.086;2023-12-20T04:56:11;7.00;99.90
52415;DHT22;38340;52.964;6.086;2023-12-20T04:58:37;7.10;99.90
52415;DHT22;38340;52.964;6.086;2023-12-20T05:01:04;7.00;99.90
52415;DHT22;38340;52.964;6.086;2023-12-20T05:03:30;7.10;99.90
52415;DHT22;38340;52.964;6.086;2023-12-20T05:05:56;7.20;99.90
52415;DHT22;38340;52.964;6.086;2023-12-20T05:08:22;7.10;99.90
52415;DHT22;38340;52.964;6.086;2023-12-20T05:10:48;7.10;99.90
52415;DHT22;38340;52.964;6.086;2023-12-20T05:13:13;7.20;99.90
52415;DHT22;38340;52.964;6.086;2023-12-20T05:15:39;7.20;99.90
52415;DHT22;38340;52.964;6.086;2023-12-20T05:18:05;7.20;99.90
52415;DHT22;38340;52.964;6.086;2023-12-20T05:20:31;7.20;99.90
52415;DHT22;38340;52.964;6.086;2023-12-20T05:22:56;7.20;99.90
52415;DHT22;38340;52.964;6.086;2023-12-20T05:25:22;7.20;99.90
52415;DHT22;38340;52.964;6.086;2023-12-20T05:27:48;7.20;99.90
52415;DHT22;38340;52.964;6.086;2023-12-20T05:30:13;7.20;99.90
52415;DHT22;38340;52.964;6.086;2023-12-20T05:32:39;7.20;99.90
52415;DHT22;38340;52.964;6.086;2023-12-20T05:35:05;7.20;99.90
52415;DHT22;38340;52.964;6.086;2023-12-20T05:37:31;7.30;99.90
52415;DHT22;38340;52.964;6.086;2023-12-20T05:39:57;7.30;99.90
52415;DHT22;38340;52.964;6.086;2023-12-20T05:42:22;7.30;99.90
52415;DHT22;38340;52.964;6.086;2023-12-20T05:44:48;7.30;99.90
52415;DHT22;38340;52.964;6.086;2023-12-20T05:47:14;7.30;99.90
52415;DHT22;38340;52.964;6.086;2023-12-20T05:49:40;7.30;99.90
52415;DHT22;38340;52.964;6.086;2023-12-20T05:52:05;7.30;99.90
52415;DHT22;38340;52.964;6.086;2023-12-20T05:54:31;7.30;99.90
52415;DHT22;38340;52.964;6.086;2023-12-20T05:56:57;7.30;99.90
52415;DHT22;38340;52.964;6.086;2023-12-20T05:59:22;7.30;99.90
52415;DHT22;38340;52.964;6.086;2023-12-20T06:01:48;7.30;99.90
52415;DHT22;38340;52.964;6.086;2023-12-20T06:04:14;7.30;99.90
52415;DHT22;38340;52.964;6.086;2023-12-20T06:06:43;7.30;99.90
52415;DHT22;38340;52.964;6.086;2023-12-20T06:09:09;7.30;99.90
52415;DHT22;38340;52.964;6.086;2023-12-20T06:11:35;7.30;99.90
52415;DHT22;38340;52.964;6.086;2023-12-20T06:14:00;7.40;99.90
52415;DHT22;38340;52.964;6.086;2023-12-20T06:16:26;7.40;99.90
52415;DHT22;38340;52.964;6.086;2023-12-20T06:18:52;7.40;99.90
52415;DHT22;38340;52.964;6.086;2023-12-20T06:21:17;7.40;99.90
52415;DHT22;38340;52.964;6.086;2023-12-20T06:23:43;7.40;99.90
52415;DHT22;38340;52.964;6.086;2023-12-20T06:26:09;7.40;99.90
52415;DHT22;38340;52.964;6.086;2023-12-20T06:28:35;7.50;99.90
52415;DHT22;38340;52.964;6.086;2023-12-20T06:31:00;7.50;99.90
52415;DHT22;38340;52.964;6.086;2023-12-20T06:33:26;7.40;99.90
52415;DHT22;38340;52.964;6.086;2023-12-20T06:35:52;7.50;99.90
52415;DHT22;38340;52.964;6.086;2023-12-20T06:38:18;7.50;99.90
52415;DHT22;38340;52.964;6.086;2023-12-20T06:40:44;7.50;99.90
52415;DHT22;38340;52.964;6.086;2023-12-20T06:43:12;7.50;99.90
52415;DHT22;38340;52.964;6.086;2023-12-20T06:45:38;7.50;99.90
52415;DHT22;38340;52.964;6.086;2023-12-20T06:48:05;7.50;99.90
52415;DHT22;38340;52.964;6.086;2023-12-20T06:50:30;7.50;99.90
52415;DHT22;38340;52.964;6.086;2023-12-20T06:52:56;7.60;99.90
52415;DHT22;38340;52.964;6.086;2023-12-20T06:55:22;7.60;99.90
52415;DHT22;38340;52.964;6.086;2023-12-20T06:57:47;7.60;99.90
52415;DHT22;38340;52.964;6.086;2023-12-20T07:00:13;7.60;99.90
52415;DHT22;38340;52.964;6.086;2023-12-20T07:02:39;7.60;99.90
52415;DHT22;38340;52.964;6.086;2023-12-20T07:05:05;7.60;99.90
52415;DHT22;38340;52.964;6.086;2023-12-20T07:07:31;7.60;99.90
52415;DHT22;38340;52.964;6.086;2023-12-20T07:09:57;7.60;99.90
52415;DHT22;38340;52.964;6.086;2023-12-20T07:12:23;7.60;99.90
52415;DHT22;38340;52.964;6.086;2023-12-20T07:14:48;7.50;99.90
52415;DHT22;38340;52.964;6.086;2023-12-20T07:17:14;7.50;99.90
52415;DHT22;38340;52.964;6.086;2023-12-20T07:19:41;7.60;99.90
52415;DHT22;38340;52.964;6.086;2023-12-20T07:22:07;7.60;99.90
52415;DHT22;38340;52.964;6.086;2023-12-20T07:24:35;7.60;99.90
52415;DHT22;38340;52.964;6.086;2023-12-20T07:27:01;7.60;99.90
52415;DHT22;38340;52.964;6.086;2023-12-20T07:29:27;7.60;99.90
52415;DHT22;38340;52.964;6.086;2023-12-20T07:31:53;7.60;99.90
52415;DHT22;38340;52.964;6.086;2023-12-20T07:34:20;7.60;99.90
52415;DHT22;38340;52.964;6.086;2023-12-20T07:36:46;7.70;99.90
52415;DHT22;38340;52.964;6.086;2023-12-20T07:39:12;7.70;99.90
52415;DHT22;38340;52.964;6.086;2023-12-20T07:41:38;7.70;99.90
52415;DHT22;38340;52.964;6.086;2023-12-20T07:44:04;7.70;99.90
52415;DHT22;38340;52.964;6.086;2023-12-20T07:46:30;7.70;99.90
52415;DHT22;38340;52.964;6.086;2023-12-20T07:48:56;7.70;99.90
52415;DHT22;38340;52.964;6.086;2023-12-20T07:51:22;7.70;99.90
52415;DHT22;38340;52.964;6.086;2023-12-20T07:53:47;7.70;99.90
52415;DHT22;38340;52.964;6.086;2023-12-20T07:56:17;7.70;99.90
52415;DHT22;38340;52.964;6.086;2023-12-20T07:58:44;7.70;99.90
52415;DHT22;38340;52.964;6.086;2023-12-20T08:01:11;7.70;99.90
52415;DHT22;38340;52.964;6.086;2023-12-20T08:03:37;7.70;99.90
52415;DHT22;38340;52.964;6.086;2023-12-20T08:06:03;7.70;99.90
52415;DHT22;38340;52.964;6.086;2023-12-20T08:08:28;7.60;99.90
52415;DHT22;38340;52.964;6.086;2023-12-20T08:10:54;7.70;99.90
52415;DHT22;38340;52.964;6.086;2023-12-20T08:13:20;7.60;99.90
52415;DHT22;38340;52.964;6.086;2023-12-20T08:15:50;7.60;99.90
52415;DHT22;38340;52.964;6.086;2023-12-20T08:18:16;7.60;99.90
52415;DHT22;38340;52.964;6.086;2023-12-20T08:20:41;7.60;99.90
52415;DHT22;38340;52.964;6.086;2023-12-20T08:23:07;7.70;99.90
52415;DHT22;38340;52.964;6.086;2023-12-20T08:25:32;7.80;99.90
52415;DHT22;38340;52.964;6.086;2023-12-20T08:27:58;7.80;99.90
52415;DHT22;38340;52.964;6.086;2023-12-20T08:30:24;7.80;99.90
52415;DHT22;38340;52.964;6.086;2023-12-20T08:32:50;7.80;99.90
52415;DHT22;38340;52.964;6.086;2023-12-20T08:35:16;7.80;99.90
52415;DHT22;38340;52.964;6.086;2023-12-20T08:37:43;7.80;99.90
52415;DHT22;38340;52.964;6.086;2023-12-20T08:40:09;7.60;99.90
52415;DHT22;38340;52.964;6.086;2023-12-20T08:42:35;7.70;99.90
52415;DHT22;38340;52.964;6.086;2023-12-20T08:45:00;7.70;99.90
52415;DHT22;38340;52.964;6.086;2023-12-20T08:47:26;7.70;99.90
52415;DHT22;38340;52.964;6.086;2023-12-20T08:49:52;7.60;99.90
52415;DHT22;38340;52.964;6.086;2023-12-20T08:52:23;7.60;99.90
52415;DHT22;38340;52.964;6.086;2023-12-20T08:54:50;7.60;99.90
52415;DHT22;38340;52.964;6.086;2023-12-20T08:57:20;7.60;99.90
52415;DHT22;38340;52.964;6.086;2023-12-20T08:59:50;7.70;99.90
52415;DHT22;38340;52.964;6.086;2023-12-20T09:02:16;7.70;99.90
52415;DHT22;38340;52.964;6.086;2023-12-20T09:04:42;7.70;99.90
52415;DHT22;38340;52.964;6.086;2023-12-20T09:07:34;7.80;99.90
52415;DHT22;38340;52.964;6.086;2023-12-20T09:10:00;7.80;99.90
52415;DHT22;38340;52.964;6.086;2023-12-20T09:12:26;8.00;99.90
52415;DHT22;38340;52.964;6.086;2023-12-20T09:14:52;8.10;99.90
52415;DHT22;38340;52.964;6.086;2023-12-20T09:17:18;8.10;99.90
52415;DHT22;38340;52.964;6.086;2023-12-20T09:19:45;7.80;99.90
52415;DHT22;38340;52.964;6.086;2023-12-20T09:22:11;7.70;99.90
52415;DHT22;38340;52.964;6.086;2023-12-20T09:24:36;7.30;99.90
52415;DHT22;38340;52.964;6.086;2023-12-20T09:27:03;6.40;99.90
52415;DHT22;38340;52.964;6.086;2023-12-20T09:29:29;5.40;99.90
52415;DHT22;38340;52.964;6.086;2023-12-20T09:31:55;4.90;99.90
52415;DHT22;38340;52.964;6.086;2023-12-20T09:34:21;5.30;99.90
52415;DHT22;38340;52.964;6.086;2023-12-20T09:36:47;6.00;99.90
52415;DHT22;38340;52.964;6.086;2023-12-20T09:39:13;6.10;99.90
52415;DHT22;38340;52.964;6.086;2023-12-20T09:41:43;5.90;99.90
52415;DHT22;38340;52.964;6.086;2023-12-20T09:44:15;5.80;99.90
52415;DHT22;38340;52.964;6.086;2023-12-20T09:46:44;5.80;99.90
52415;DHT22;38340;52.964;6.086;2023-12-20T09:49:12;5.70;99.90
52415;DHT22;38340;52.964;6.086;2023-12-20T09:51:39;5.70;99.90
52415;DHT22;38340;52.964;6.086;2023-12-20T09:54:06;5.70;99.90
52415;DHT22;38340;52.964;6.086;2023-12-20T09:56:31;5.70;99.90
52415;DHT22;38340;52.964;6.086;2023-12-20T09:58:57;5.80;99.90
52415;DHT22;38340;52.964;6.086;2023-12-20T10:01:28;5.80;99.90
52415;DHT22;38340;52.964;6.086;2023-12-20T10:03:54;5.80;99.90
52415;DHT22;38340;52.964;6.086;2023-12-20T10:06:21;5.80;99.90
52415;DHT22;38340;52.964;6.086;2023-12-20T10:08:47;5.70;99.90
52415;DHT22;38340;52.964;6.086;2023-12-20T10:11:13;5.80;99.90
52415;DHT22;38340;52.964;6.086;2023-12-20T10:13:40;5.80;99.90
52415;DHT22;38340;52.964;6.086;2023-12-20T10:16:09;5.80;99.90
52415;DHT22;38340;52.964;6.086;2023-12-20T10:18:35;5.90;99.90
52415;DHT22;38340;52.964;6.086;2023-12-20T10:21:01;5.80;99.90
52415;DHT22;38340;52.964;6.086;2023-12-20T10:23:29;6.00;99.90
52415;DHT22;38340;52.964;6.086;2023-12-20T10:25:59;6.00;99.90
52415;DHT22;38340;52.964;6.086;2023-12-20T10:28:26;6.00;99.90
52415;DHT22;38340;52.964;6.086;2023-12-20T10:30:54;6.10;99.90
52415;DHT22;38340;52.964;6.086;2023-12-20T10:33:25;6.10;99.90
52415;DHT22;38340;52.964;6.086;2023-12-20T10:35:52;6.10;99.90
52415;DHT22;38340;52.964;6.086;2023-12-20T10:38:18;6.10;99.90
52415;DHT22;38340;52.964;6.086;2023-12-20T10:40:45;6.10;99.90
52415;DHT22;38340;52.964;6.086;2023-12-20T10:43:12;6.10;99.90
52415;DHT22;38340;52.964;6.086;2023-12-20T10:45:37;6.10;99.90
52415;DHT22;38340;52.964;6.086;2023-12-20T10:48:04;6.20;99.90
52415;DHT22;38340;52.964;6.086;2023-12-20T10:50:30;6.20;99.90
52415;DHT22;38340;52.964;6.086;2023-12-20T10:52:57;6.20;99.90
52415;DHT22;38340;52.964;6.086;2023-12-20T10:55:23;6.20;99.90
52415;DHT22;38340;52.964;6.086;2023-12-20T10:57:54;6.20;99.90
52415;DHT22;38340;52.964;6.086;2023-12-20T11:00:24;6.30;99.90
52415;DHT22;38340;52.964;6.086;2023-12-20T11:02:50;6.30;99.90
52415;DHT22;38340;52.964;6.086;2023-12-20T11:08:12;6.40;99.90
52415;DHT22;38340;52.964;6.086;2023-12-20T11:10:51;6.40;99.90
52415;DHT22;38340;52.964;6.086;2023-12-20T11:13:28;6.40;99.90
52415;DHT22;38340;52.964;6.086;2023-12-20T11:15:56;6.50;99.90
52415;DHT22;38340;52.964;6.086;2023-12-20T11:18:29;6.50;99.90
52415;DHT22;38340;52.964;6.086;2023-12-20T11:20:55;6.50;99.90
52415;DHT22;38340;52.964;6.086;2023-12-20T11:23:21;6.50;99.90
52415;DHT22;38340;52.964;6.086;2023-12-20T11:25:49;6.60;99.90
52415;DHT22;38340;52.964;6.086;2023-12-20T11:28:21;6.60;99.90
52415;DHT22;38340;52.964;6.086;2023-12-20T11:30:54;6.60;99.90
52415;DHT22;38340;52.964;6.086;2023-12-20T11:33:30;6.50;99.90
52415;DHT22;38340;52.964;6.086;2023-12-20T11:35:57;6.60;99.90
52415;DHT22;38340;52.964;6.086;2023-12-20T11:38:25;6.60;99.90
52415;DHT22;38340;52.964;6.086;2023-12-20T11:40:51;6.60;99.90
52415;DHT22;38340;52.964;6.086;2023-12-20T11:43:31;6.60;99.90
52415;DHT22;38340;52.964;6.086;2023-12-20T11:46:07;6.70;99.90
52415;DHT22;38340;52.964;6.086;2023-12-20T11:48:40;6.70;99.90
52415;DHT22;38340;52.964;6.086;2023-12-20T11:51:12;6.70;99.90
52415;DHT22;38340;52.964;6.086;2023-12-20T11:53:39;6.70;99.90
52415;DHT22;38340;52.964;6.086;2023-12-20T11:56:08;6.70;99.90
52415;DHT22;38340;52.964;6.086;2023-12-20T11:58:34;6.70;99.90
52415;DHT22;38340;52.964;6.086;2023-12-20T12:01:01;6.70;99.90
52415;DHT22;38340;52.964;6.086;2023-12-20T12:03:30;6.70;99.90
52415;DHT22;38340;52.964;6.086;2023-12-20T12:05:56;6.70;99.90
52415;DHT22;38340;52.964;6.086;2023-12-20T12:08:22;6.80;99.90
52415;DHT22;38340;52.964;6.086;2023-12-20T12:10:48;6.70;99.90
52415;DHT22;38340;52.964;6.086;2023-12-20T12:13:14;6.70;99.90
52415;DHT22;38340;52.964;6.086;2023-12-20T12:15:40;6.60;99.90
52415;DHT22;38340;52.964;6.086;2023-12-20T12:18:07;6.60;99.90
52415;DHT22;38340;52.964;6.086;2023-12-20T12:20:33;6.60;99.90
52415;DHT22;38340;52.964;6.086;2023-12-20T12:23:04;6.60;99.90
52415;DHT22;38340;52.964;6.086;2023-12-20T12:25:31;6.60;99.90
52415;DHT22;38340;52.964;6.086;2023-12-20T12:27:58;6.60;99.90
52415;DHT22;38340;52.964;6.086;2023-12-20T12:30:24;6.60;99.90
52415;DHT22;38340;52.964;6.086;2023-12-20T12:32:53;6.50;99.90
52415;DHT22;38340;52.964;6.086;2023-12-20T12:35:19;6.50;99.90
52415;DHT22;38340;52.964;6.086;2023-12-20T12:37:45;6.50;99.90
52415;DHT22;38340;52.964;6.086;2023-12-20T12:40:15;6.50;99.90
52415;DHT22;38340;52.964;6.086;2023-12-20T12:42:42;6.40;99.90
52415;DHT22;38340;52.964;6.086;2023-12-20T12:45:09;6.30;99.90
52415;DHT22;38340;52.964;6.086;2023-12-20T12:47:35;6.30;99.90
52415;DHT22;38340;52.964;6.086;2023-12-20T12:50:01;6.30;99.90
52415;DHT22;38340;52.964;6.086;2023-12-20T12:52:27;6.20;99.90
52415;DHT22;38340;52.964;6.086;2023-12-20T12:54:53;6.20;99.90
52415;DHT22;38340;52.964;6.086;2023-12-20T12:57:19;6.20;99.90
52415;DHT22;38340;52.964;6.086;2023-12-20T12:59:45;6.20;99.90
52415;DHT22;38340;52.964;6.086;2023-12-20T13:02:14;6.10;99.90
52415;DHT22;38340;52.964;6.086;2023-12-20T13:04:43;6.20;99.90
52415;DHT22;38340;52.964;6.086;2023-12-20T13:07:09;6.10;99.90
52415;DHT22;38340;52.964;6.086;2023-12-20T13:09:38;6.10;99.90
52415;DHT22;38340;52.964;6.086;2023-12-20T13:12:05;6.10;99.90
52415;DHT22;38340;52.964;6.086;2023-12-20T13:14:35;6.10;99.90
52415;DHT22;38340;52.964;6.086;2023-12-20T13:17:03;6.20;99.90
52415;DHT22;38340;52.964;6.086;2023-12-20T13:19:29;6.10;99.90
52415;DHT22;38340;52.964;6.086;2023-12-20T13:21:56;6.20;99.90
52415;DHT22;38340;52.964;6.086;2023-12-20T13:24:21;6.10;99.90
52415;DHT22;38340;52.964;6.086;2023-12-20T13:26:47;6.10;99.90
52415;DHT22;38340;52.964;6.086;2023-12-20T13:29:13;6.10;99.90
52415;DHT22;38340;52.964;6.086;2023-12-20T13:31:39;6.10;99.90
52415;DHT22;38340;52.964;6.086;2023-12-20T13:34:06;6.10;99.90
52415;DHT22;38340;52.964;6.086;2023-12-20T13:36:31;6.10;99.90
52415;DHT22;38340;52.964;6.086;2023-12-20T13:38:57;6.10;99.90
52415;DHT22;38340;52.964;6.086;2023-12-20T13:41:23;6.10;99.90
52415;DHT22;38340;52.964;6.086;2023-12-20T13:43:49;6.10;99.90
52415;DHT22;38340;52.964;6.086;2023-12-20T13:46:15;6.10;99.90
52415;DHT22;38340;52.964;6.086;2023-12-20T13:48:40;6.10;99.90
52415;DHT22;38340;52.964;6.086;2023-12-20T13:51:07;6.10;99.90
52415;DHT22;38340;52.964;6.086;2023-12-20T13:53:33;6.10;99.90
52415;DHT22;38340;52.964;6.086;2023-12-20T13:55:59;6.20;99.90
52415;DHT22;38340;52.964;6.086;2023-12-20T13:58:25;6.20;99.90
52415;DHT22;38340;52.964;6.086;2023-12-20T14:00:51;6.20;99.90
52415;DHT22;38340;52.964;6.086;2023-12-20T14:03:17;6.30;99.90
52415;DHT22;38340;52.964;6.086;2023-12-20T14:05:42;6.20;99.90
52415;DHT22;38340;52.964;6.086;2023-12-20T14:08:08;6.30;99.90
52415;DHT22;38340;52.964;6.086;2023-12-20T14:10:35;6.20;99.90
52415;DHT22;38340;52.964;6.086;2023-12-20T14:13:01;6.30;99.90
52415;DHT22;38340;52.964;6.086;2023-12-20T14:15:26;6.30;99.90
52415;DHT22;38340;52.964;6.086;2023-12-20T14:17:52;6.30;99.90
52415;DHT22;38340;52.964;6.086;2023-12-20T14:20:18;6.30;99.90
52415;DHT22;38340;52.964;6.086;2023-12-20T14:22:44;6.30;99.90
52415;DHT22;38340;52.964;6.086;2023-12-20T14:25:14;6.30;99.90
52415;DHT22;38340;52.964;6.086;2023-12-20T14:27:41;6.30;99.90
52415;DHT22;38340;52.964;6.086;2023-12-20T14:30:09;6.30;99.90
52415;DHT22;38340;52.964;6.086;2023-12-20T14:32:35;6.30;99.90
52415;DHT22;38340;52.964;6.086;2023-12-20T14:35:05;6.30;99.90
52415;DHT22;38340;52.964;6.086;2023-12-20T14:37:30;6.30;99.90
52415;DHT22;38340;52.964;6.086;2023-12-20T14:39:56;6.30;99.90
52415;DHT22;38340;52.964;6.086;2023-12-20T14:42:22;6.30;99.90
52415;DHT22;38340;52.964;6.086;2023-12-20T14:44:48;6.30;99.90
52415;DHT22;38340;52.964;6.086;2023-12-20T14:47:13;6.30;99.90
52415;DHT22;38340;52.964;6.086;2023-12-20T14:49:41;6.30;99.90
52415;DHT22;38340;52.964;6.086;2023-12-20T14:52:08;6.30;99.90
52415;DHT22;38340;52.964;6.086;2023-12-20T14:54:37;6.30;99.90
52415;DHT22;38340;52.964;6.086;2023-12-20T14:57:02;6.40;99.90
52415;DHT22;38340;52.964;6.086;2023-12-20T14:59:28;6.40;99.90
52415;DHT22;38340;52.964;6.086;2023-12-20T15:01:54;6.50;99.90
52415;DHT22;38340;52.964;6.086;2023-12-20T15:04:20;6.50;99.90
52415;DHT22;38340;52.964;6.086;2023-12-20T15:06:54;6.60;99.90
52415;DHT22;38340;52.964;6.086;2023-12-20T15:09:20;6.70;99.90
52415;DHT22;38340;52.964;6.086;2023-12-20T15:11:45;6.70;99.90
52415;DHT22;38340;52.964;6.086;2023-12-20T15:14:11;6.70;99.90
52415;DHT22;38340;52.964;6.086;2023-12-20T15:16:40;6.80;99.90
52415;DHT22;38340;52.964;6.086;2023-12-20T15:19:05;6.80;99.90
52415;DHT22;38340;52.964;6.086;2023-12-20T15:21:31;6.90;99.90
52415;DHT22;38340;52.964;6.086;2023-12-20T15:23:59;6.90;99.90
52415;DHT22;38340;52.964;6.086;2023-12-20T15:26:40;7.00;99.90
52415;DHT22;38340;52.964;6.086;2023-12-20T15:29:06;7.10;99.90
52415;DHT22;38340;52.964;6.086;2023-12-20T15:31:32;7.20;99.90
52415;DHT22;38340;52.964;6.086;2023-12-20T15:33:59;7.20;99.90
52415;DHT22;38340;52.964;6.086;2023-12-20T15:36:25;7.20;99.90
52415;DHT22;38340;52.964;6.086;2023-12-20T15:38:51;7.30;99.90
52415;DHT22;38340;52.964;6.086;2023-12-20T15:41:18;7.30;99.90
52415;DHT22;38340;52.964;6.086;2023-12-20T15:43:44;7.20;99.90